Terminal Aerodrome Forecast
Issued by NWS

Home | Current Version | Previous Version | Text Only | Print | Product List | Glossary On
Versions: 1 2 3 4 5 6 7 8 9 10 11 12 13
000
FTUS45 KFGZ 251100
TAFPGA
TAF
KPGA 251137Z 2512/2612 23011KT P6SM VCSH SCT040 OVC050
      TEMPO 2514/2518 6SM -SHRA BKN040
     FM251800 22017G28KT P6SM VCSH SCT028 BKN035
      TEMPO 2519/2523 5SM -SHRA BR BKN025
     FM252300 22011KT 4SM -SHRA BR OVC020=

USA.gov is the U.S. government's official web portal to all federal, state and local government web resources and services.